TimeCST,TemperatureF,Dew PointF,Humidity,Sea Level PressureIn,VisibilityMPH,Wind Direction,Wind SpeedMPH,Gust SpeedMPH,PrecipitationIn,Events,Conditions,WindDirDegrees,DateUTC
12:53 AM,46.0,28.9,51,29.65,10.0,South,15.0,-,N/A,,Overcast,190,2013-12-02 06:53:00
1:53 AM,44.1,28.9,55,29.63,10.0,SSW,13.8,-,N/A,,Mostly Cloudy,210,2013-12-02 07:53:00
2:53 AM,44.1,28.9,55,29.62,10.0,SW,11.5,-,N/A,,Clear,220,2013-12-02 08:53:00
3:53 AM,43.0,30.0,60,29.60,10.0,SW,9.2,-,N/A,,Partly Cloudy,230,2013-12-02 09:53:00
4:53 AM,43.0,30.0,60,29.58,10.0,WSW,11.5,-,N/A,,Clear,250,2013-12-02 10:53:00
5:53 AM,37.9,28.0,68,29.60,10.0,WNW,8.1,-,N/A,,Clear,300,2013-12-02 11:53:00
6:53 AM,36.0,27.0,70,29.61,10.0,WNW,5.8,-,N/A,,Clear,300,2013-12-02 12:53:00
7:53 AM,37.9,28.0,68,29.58,10.0,SW,6.9,-,N/A,,Clear,230,2013-12-02 13:53:00
8:53 AM,44.1,30.0,58,29.58,10.0,SW,8.1,-,N/A,,Clear,230,2013-12-02 14:53:00
9:53 AM,48.0,30.9,52,29.57,10.0,WNW,8.1,-,N/A,,Clear,290,2013-12-02 15:53:00
10:53 AM,54.0,30.9,41,29.56,10.0,WNW,13.8,-,N/A,,Clear,300,2013-12-02 16:53:00
11:53 AM,55.9,32.0,40,29.52,10.0,WNW,10.4,-,N/A,,Mostly Cloudy,290,2013-12-02 17:53:00
12:53 PM,55.9,32.0,40,29.49,10.0,NW,6.9,-,N/A,,Scattered Clouds,310,2013-12-02 18:53:00
1:53 PM,60.1,30.9,33,29.49,10.0,NW,8.1,-,N/A,,Clear,320,2013-12-02 19:53:00
2:53 PM,57.0,32.0,39,29.50,10.0,North,10.4,-,N/A,,Overcast,350,2013-12-02 20:53:00
3:53 PM,55.9,30.9,39,29.50,10.0,West,5.8,-,N/A,,Clear,280,2013-12-02 21:53:00
4:53 PM,50.0,30.9,48,29.53,10.0,NNE,6.9,-,N/A,,Mostly Cloudy,30,2013-12-02 22:53:00
5:53 PM,44.1,30.0,58,29.56,10.0,NE,6.9,-,N/A,,Scattered Clouds,50,2013-12-02 23:53:00
6:53 PM,42.1,30.0,62,29.57,10.0,ENE,4.6,-,N/A,,Clear,60,2013-12-03 00:53:00
7:53 PM,43.0,30.9,62,29.57,10.0,Calm,Calm,-,N/A,,Clear,0,2013-12-03 01:53:00
8:53 PM,37.9,30.9,76,29.58,10.0,North,10.4,-,N/A,,Partly Cloudy,10,2013-12-03 02:53:00
9:53 PM,35.1,30.9,85,29.60,10.0,North,5.8,-,N/A,,Partly Cloudy,10,2013-12-03 03:53:00
10:23 PM,33.8,30.2,87,29.56,10.0,NE,3.5,-,N/A,,Mostly Cloudy,50,2013-12-03 04:23:00
10:33 PM,33.8,30.2,87,29.56,10.0,East,4.6,-,N/A,,Mostly Cloudy,90,2013-12-03 04:33:00
10:53 PM,35.1,30.9,85,29.60,10.0,NNE,5.8,-,N/A,,Overcast,20,2013-12-03 04:53:00
11:53 PM,35.1,30.9,85,29.62,10.0,NNW,6.9,-,N/A,,Overcast,340,2013-12-03 05:53:00